sensor_id;sensor_type;location;lat;lon;timestamp;pressure;altitude;pressure_sealevel;temperature;humidity
18850;BME280;4989;48.772;9.154;2022-08-21T00:00:01;98097.94;;;23.37;55.58
18850;BME280;4989;48.772;9.154;2022-08-21T00:05:13;98094.19;;;23.00;55.11
18850;BME280;4989;48.772;9.154;2022-08-21T00:10:17;98092.78;;;22.39;62.08
18850;BME280;4989;48.772;9.154;2022-08-21T00:15:25;98082.38;;;21.69;57.78
18850;BME280;4989;48.772;9.154;2022-08-21T00:20:28;98089.50;;;21.07;60.48
18850;BME280;4989;48.772;9.154;2022-08-21T00:25:32;98081.13;;;21.33;67.06
18850;BME280;4989;48.772;9.154;2022-08-21T00:30:35;98082.72;;;21.39;59.07
18850;BME280;4989;48.772;9.154;2022-08-21T00:35:41;98082.38;;;21.32;59.14
18850;BME280;4989;48.772;9.154;2022-08-21T00:40:51;98084.03;;;20.86;60.76
18850;BME280;4989;48.772;9.154;2022-08-21T00:45:54;98088.19;;;21.02;64.13
18850;BME280;4989;48.772;9.154;2022-08-21T00:51:10;98083.00;;;21.47;59.98
18850;BME280;4989;48.772;9.154;2022-08-21T00:56:14;98077.50;;;20.57;61.37
18850;BME280;4989;48.772;9.154;2022-08-21T01:01:18;98067.69;;;20.36;63.96
18850;BME280;4989;48.772;9.154;2022-08-21T01:06:21;98063.75;;;21.64;69.31
18850;BME280;4989;48.772;9.154;2022-08-21T01:11:23;98070.09;;;22.35;69.52
18850;BME280;4989;48.772;9.154;2022-08-21T01:16:26;98069.69;;;22.76;64.66
18850;BME280;4989;48.772;9.154;2022-08-21T01:21:29;98069.94;;;22.90;65.17
18850;BME280;4989;48.772;9.154;2022-08-21T01:26:33;98076.25;;;22.84;56.40
18850;BME280;4989;48.772;9.154;2022-08-21T01:31:39;98068.06;;;21.33;59.04
18850;BME280;4989;48.772;9.154;2022-08-21T01:36:43;98069.16;;;20.52;61.87
18850;BME280;4989;48.772;9.154;2022-08-21T01:41:46;98068.25;;;20.66;63.63
18850;BME280;4989;48.772;9.154;2022-08-21T01:46:49;98062.56;;;21.76;69.04
18850;BME280;4989;48.772;9.154;2022-08-21T01:51:52;98055.47;;;22.29;63.16
18850;BME280;4989;48.772;9.154;2022-08-21T01:56:54;98059.75;;;22.19;63.58
18850;BME280;4989;48.772;9.154;2022-08-21T02:01:57;98062.34;;;22.45;67.07
18850;BME280;4989;48.772;9.154;2022-08-21T02:07:01;98050.28;;;22.71;65.10
18850;BME280;4989;48.772;9.154;2022-08-21T02:12:03;98042.19;;;21.79;58.37
18850;BME280;4989;48.772;9.154;2022-08-21T02:17:06;98044.44;;;20.69;61.28
18850;BME280;4989;48.772;9.154;2022-08-21T02:22:11;98047.44;;;19.78;63.56
18850;BME280;4989;48.772;9.154;2022-08-21T02:27:14;98043.72;;;20.01;65.19
18850;BME280;4989;48.772;9.154;2022-08-21T02:32:16;98042.31;;;20.11;63.41
18850;BME280;4989;48.772;9.154;2022-08-21T02:37:19;98039.38;;;19.39;64.95
18850;BME280;4989;48.772;9.154;2022-08-21T02:42:22;98044.19;;;19.09;69.04
18850;BME280;4989;48.772;9.154;2022-08-21T02:47:24;98037.06;;;20.86;73.55
18850;BME280;4989;48.772;9.154;2022-08-21T02:52:27;98036.59;;;20.15;62.44
18850;BME280;4989;48.772;9.154;2022-08-21T02:57:30;98042.69;;;19.08;66.18
18850;BME280;4989;48.772;9.154;2022-08-21T03:02:34;98048.91;;;19.38;72.75
18850;BME280;4989;48.772;9.154;2022-08-21T03:07:37;98042.31;;;21.16;75.90
18850;BME280;4989;48.772;9.154;2022-08-21T03:12:41;98039.84;;;20.13;63.24
18850;BME280;4989;48.772;9.154;2022-08-21T03:17:44;98040.28;;;19.65;67.06
18850;BME280;4989;48.772;9.154;2022-08-21T03:22:48;98046.13;;;20.61;72.25
18850;BME280;4989;48.772;9.154;2022-08-21T03:27:54;98036.63;;;21.31;68.60
18850;BME280;4989;48.772;9.154;2022-08-21T03:33:01;98038.75;;;21.47;69.56
18850;BME280;4989;48.772;9.154;2022-08-21T03:38:03;98044.31;;;22.07;69.56
18850;BME280;4989;48.772;9.154;2022-08-21T03:43:06;98045.69;;;21.74;61.34
18850;BME280;4989;48.772;9.154;2022-08-21T03:48:11;98054.72;;;21.32;68.80
18850;BME280;4989;48.772;9.154;2022-08-21T03:53:15;98066.41;;;21.95;66.58
18850;BME280;4989;48.772;9.154;2022-08-21T03:58:21;98062.38;;;21.11;62.91
18850;BME280;4989;48.772;9.154;2022-08-21T04:03:25;98060.94;;;19.76;66.30
18850;BME280;4989;48.772;9.154;2022-08-21T04:08:28;98069.81;;;19.30;70.03
18850;BME280;4989;48.772;9.154;2022-08-21T04:13:30;98061.50;;;20.21;72.83
18850;BME280;4989;48.772;9.154;2022-08-21T04:18:33;98070.69;;;21.42;72.23
18850;BME280;4989;48.772;9.154;2022-08-21T04:23:36;98075.00;;;21.98;69.92
18850;BME280;4989;48.772;9.154;2022-08-21T04:28:39;98085.34;;;22.08;67.42
18850;BME280;4989;48.772;9.154;2022-08-21T04:33:42;98076.88;;;22.23;68.66
18850;BME280;4989;48.772;9.154;2022-08-21T04:38:44;98089.97;;;22.23;62.62
18850;BME280;4989;48.772;9.154;2022-08-21T04:43:47;98089.44;;;21.70;67.89
18850;BME280;4989;48.772;9.154;2022-08-21T04:48:49;98101.19;;;22.08;66.50
18850;BME280;4989;48.772;9.154;2022-08-21T04:54:09;98095.75;;;22.19;64.45
18850;BME280;4989;48.772;9.154;2022-08-21T04:59:19;98094.00;;;22.33;64.81
18850;BME280;4989;48.772;9.154;2022-08-21T05:04:26;98097.06;;;21.86;62.93
18850;BME280;4989;48.772;9.154;2022-08-21T05:09:30;98093.75;;;22.25;67.30
18850;BME280;4989;48.772;9.154;2022-08-21T05:14:33;98099.31;;;22.36;63.92
18850;BME280;4989;48.772;9.154;2022-08-21T05:19:36;98111.16;;;22.37;65.89
18850;BME280;4989;48.772;9.154;2022-08-21T05:24:39;98114.66;;;22.32;63.47
18850;BME280;4989;48.772;9.154;2022-08-21T05:29:42;98115.25;;;22.58;67.23
18850;BME280;4989;48.772;9.154;2022-08-21T05:34:45;98119.00;;;22.50;59.85
18850;BME280;4989;48.772;9.154;2022-08-21T05:39:47;98121.78;;;21.95;61.36
18850;BME280;4989;48.772;9.154;2022-08-21T05:45:10;98119.28;;;21.98;63.86
18850;BME280;4989;48.772;9.154;2022-08-21T05:50:13;98125.22;;;22.28;60.23
18850;BME280;4989;48.772;9.154;2022-08-21T05:55:15;98125.84;;;22.06;61.52
18850;BME280;4989;48.772;9.154;2022-08-21T06:00:18;98126.28;;;22.41;65.87
18850;BME280;4989;48.772;9.154;2022-08-21T06:05:20;98122.09;;;22.85;64.47
18850;BME280;4989;48.772;9.154;2022-08-21T06:10:38;98123.31;;;22.68;59.71
18850;BME280;4989;48.772;9.154;2022-08-21T06:15:41;98123.94;;;23.34;66.53
18850;BME280;4989;48.772;9.154;2022-08-21T06:20:44;98129.69;;;23.58;62.19
18850;BME280;4989;48.772;9.154;2022-08-21T06:25:47;98126.66;;;23.50;58.91
18850;BME280;4989;48.772;9.154;2022-08-21T06:30:49;98131.47;;;23.55;60.89
18850;BME280;4989;48.772;9.154;2022-08-21T06:35:52;98124.69;;;23.40;55.29
18850;BME280;4989;48.772;9.154;2022-08-21T06:40:54;98126.69;;;23.00;56.86
18850;BME280;4989;48.772;9.154;2022-08-21T06:45:59;98116.34;;;23.45;61.61
18850;BME280;4989;48.772;9.154;2022-08-21T06:51:01;98119.81;;;23.96;55.27
18850;BME280;4989;48.772;9.154;2022-08-21T06:56:04;98106.59;;;24.19;54.04
18850;BME280;4989;48.772;9.154;2022-08-21T07:01:07;98113.41;;;24.18;53.98
18850;BME280;4989;48.772;9.154;2022-08-21T07:06:10;98111.56;;;24.32;52.91
18850;BME280;4989;48.772;9.154;2022-08-21T07:11:21;98097.97;;;24.76;56.21
18850;BME280;4989;48.772;9.154;2022-08-21T07:16:24;98096.31;;;24.97;52.14
18850;BME280;4989;48.772;9.154;2022-08-21T07:21:27;98107.31;;;24.26;52.10
18850;BME280;4989;48.772;9.154;2022-08-21T07:26:29;98106.69;;;24.55;54.91
18850;BME280;4989;48.772;9.154;2022-08-21T07:31:32;98094.44;;;25.41;52.08
18850;BME280;4989;48.772;9.154;2022-08-21T07:36:35;98096.59;;;25.84;56.04
18850;BME280;4989;48.772;9.154;2022-08-21T07:41:37;98093.28;;;26.04;53.91
18850;BME280;4989;48.772;9.154;2022-08-21T07:46:40;98087.59;;;26.16;55.37
18850;BME280;4989;48.772;9.154;2022-08-21T07:51:42;98087.44;;;26.46;53.90
18850;BME280;4989;48.772;9.154;2022-08-21T07:56:45;98091.38;;;26.75;53.20
18850;BME280;4989;48.772;9.154;2022-08-21T08:01:48;98089.53;;;26.97;52.10
18850;BME280;4989;48.772;9.154;2022-08-21T08:06:50;98074.19;;;27.35;49.54
18850;BME280;4989;48.772;9.154;2022-08-21T08:11:53;98078.28;;;27.61;51.52
18850;BME280;4989;48.772;9.154;2022-08-21T08:16:56;98074.63;;;28.19;45.49
18850;BME280;4989;48.772;9.154;2022-08-21T08:21:58;98074.59;;;28.33;48.76
18850;BME280;4989;48.772;9.154;2022-08-21T08:27:01;98072.44;;;28.39;45.52
18850;BME280;4989;48.772;9.154;2022-08-21T08:32:04;98068.78;;;28.99;42.65
18850;BME280;4989;48.772;9.154;2022-08-21T08:37:09;98061.91;;;28.45;47.53
18850;BME280;4989;48.772;9.154;2022-08-21T08:47:38;98050.19;;;29.59;44.89
18850;BME280;4989;48.772;9.154;2022-08-21T08:52:51;98041.88;;;30.10;44.04
18850;BME280;4989;48.772;9.154;2022-08-21T08:57:56;98041.88;;;29.66;43.47
18850;BME280;4989;48.772;9.154;2022-08-21T09:03:01;98035.75;;;30.79;42.11
18850;BME280;4989;48.772;9.154;2022-08-21T09:24:37;98035.28;;;32.71;36.73
18850;BME280;4989;48.772;9.154;2022-08-21T09:29:45;98032.00;;;33.32;32.98
18850;BME280;4989;48.772;9.154;2022-08-21T09:45:38;98023.75;;;34.31;31.86
18850;BME280;4989;48.772;9.154;2022-08-21T09:50:43;98016.59;;;34.84;32.12
18850;BME280;4989;48.772;9.154;2022-08-21T09:56:00;98011.16;;;34.32;36.65
18850;BME280;4989;48.772;9.154;2022-08-21T10:01:26;98006.81;;;34.31;36.13
18850;BME280;4989;48.772;9.154;2022-08-21T10:06:29;98006.41;;;33.90;36.96
18850;BME280;4989;48.772;9.154;2022-08-21T10:11:33;97999.91;;;33.45;36.64
18850;BME280;4989;48.772;9.154;2022-08-21T10:32:36;97990.00;;;34.87;35.51
18850;BME280;4989;48.772;9.154;2022-08-21T10:48:38;97976.63;;;34.51;32.63
18850;BME280;4989;48.772;9.154;2022-08-21T10:59:55;97967.25;;;37.67;27.95
18850;BME280;4989;48.772;9.154;2022-08-21T11:10:22;97951.00;;;37.68;31.28
18850;BME280;4989;48.772;9.154;2022-08-21T11:21:20;97955.31;;;36.73;31.62
18850;BME280;4989;48.772;9.154;2022-08-21T11:42:55;97938.78;;;39.79;25.76
18850;BME280;4989;48.772;9.154;2022-08-21T11:58:33;97917.38;;;39.03;26.19
18850;BME280;4989;48.772;9.154;2022-08-21T12:03:50;97907.97;;;37.50;30.29
18850;BME280;4989;48.772;9.154;2022-08-21T12:09:03;97914.56;;;39.41;27.84
18850;BME280;4989;48.772;9.154;2022-08-21T12:19:33;97910.44;;;39.55;25.87
18850;BME280;4989;48.772;9.154;2022-08-21T12:29:49;97890.72;;;39.85;26.34
18850;BME280;4989;48.772;9.154;2022-08-21T12:35:05;97880.91;;;39.00;25.45
18850;BME280;4989;48.772;9.154;2022-08-21T12:40:32;97887.38;;;38.77;28.38
18850;BME280;4989;48.772;9.154;2022-08-21T12:45:43;97872.59;;;38.43;29.35
18850;BME280;4989;48.772;9.154;2022-08-21T12:50:55;97881.50;;;39.47;25.67
18850;BME280;4989;48.772;9.154;2022-08-21T12:56:07;97877.34;;;39.25;25.56
18850;BME280;4989;48.772;9.154;2022-08-21T13:01:31;97883.53;;;36.59;28.41
18850;BME280;4989;48.772;9.154;2022-08-21T13:06:49;97876.00;;;32.60;32.45
18850;BME280;4989;48.772;9.154;2022-08-21T13:11:53;97876.91;;;31.32;39.14
18850;BME280;4989;48.772;9.154;2022-08-21T13:16:58;97870.44;;;32.27;37.56
18850;BME280;4989;48.772;9.154;2022-08-21T13:22:02;97866.22;;;34.56;34.09
18850;BME280;4989;48.772;9.154;2022-08-21T13:27:30;97875.09;;;32.32;37.35
18850;BME280;4989;48.772;9.154;2022-08-21T13:32:35;97869.22;;;30.38;39.92
18850;BME280;4989;48.772;9.154;2022-08-21T13:37:42;97862.34;;;29.72;40.93
18850;BME280;4989;48.772;9.154;2022-08-21T13:42:47;97859.81;;;30.74;39.44
18850;BME280;4989;48.772;9.154;2022-08-21T13:47:50;97858.66;;;33.06;36.21
18850;BME280;4989;48.772;9.154;2022-08-21T13:53:01;97854.84;;;35.32;30.05
18850;BME280;4989;48.772;9.154;2022-08-21T13:58:05;97853.53;;;37.08;28.02
18850;BME280;4989;48.772;9.154;2022-08-21T14:03:10;97846.16;;;36.72;29.95
18850;BME280;4989;48.772;9.154;2022-08-21T14:08:33;97851.31;;;35.82;28.85
18850;BME280;4989;48.772;9.154;2022-08-21T14:13:43;97855.16;;;36.37;27.71
18850;BME280;4989;48.772;9.154;2022-08-21T14:19:07;97847.88;;;36.34;30.53
18850;BME280;4989;48.772;9.154;2022-08-21T14:24:27;97833.44;;;35.89;32.33
18850;BME280;4989;48.772;9.154;2022-08-21T14:29:35;97841.81;;;34.51;31.24
18850;BME280;4989;48.772;9.154;2022-08-21T14:34:38;97840.41;;;35.28;32.99
18850;BME280;4989;48.772;9.154;2022-08-21T14:39:41;97826.00;;;33.38;35.23
18850;BME280;4989;48.772;9.154;2022-08-21T14:44:46;97823.88;;;34.56;30.70
18850;BME280;4989;48.772;9.154;2022-08-21T14:49:49;97823.75;;;34.17;34.73
18850;BME280;4989;48.772;9.154;2022-08-21T14:54:53;97828.09;;;32.43;36.92
18850;BME280;4989;48.772;9.154;2022-08-21T14:59:55;97801.81;;;32.82;36.21
18850;BME280;4989;48.772;9.154;2022-08-21T15:05:03;97806.41;;;33.94;32.15
18850;BME280;4989;48.772;9.154;2022-08-21T15:10:07;97805.91;;;33.34;30.33
18850;BME280;4989;48.772;9.154;2022-08-21T15:15:11;97809.13;;;32.68;36.27
18850;BME280;4989;48.772;9.154;2022-08-21T15:20:18;97797.34;;;32.62;33.92
18850;BME280;4989;48.772;9.154;2022-08-21T15:25:21;97791.56;;;33.93;32.29
18850;BME280;4989;48.772;9.154;2022-08-21T15:30:23;97785.72;;;33.10;36.01
18850;BME280;4989;48.772;9.154;2022-08-21T15:35:26;97787.84;;;33.37;32.05
18850;BME280;4989;48.772;9.154;2022-08-21T15:40:29;97787.16;;;32.67;31.49
18850;BME280;4989;48.772;9.154;2022-08-21T15:45:33;97772.97;;;31.64;33.22
18850;BME280;4989;48.772;9.154;2022-08-21T15:50:36;97778.38;;;31.70;38.73
18850;BME280;4989;48.772;9.154;2022-08-21T15:55:39;97768.25;;;31.42;39.43
18850;BME280;4989;48.772;9.154;2022-08-21T16:00:45;97770.25;;;31.09;33.29
18850;BME280;4989;48.772;9.154;2022-08-21T16:05:49;97767.47;;;30.15;42.39
18850;BME280;4989;48.772;9.154;2022-08-21T16:10:55;97771.16;;;29.63;42.97
18850;BME280;4989;48.772;9.154;2022-08-21T16:15:57;97766.63;;;29.45;40.86
18850;BME280;4989;48.772;9.154;2022-08-21T16:21:00;97764.47;;;29.82;34.83
18850;BME280;4989;48.772;9.154;2022-08-21T16:26:03;97752.50;;;30.12;34.22
18850;BME280;4989;48.772;9.154;2022-08-21T16:31:09;97751.38;;;29.92;35.67
18850;BME280;4989;48.772;9.154;2022-08-21T16:36:16;97750.91;;;29.27;42.71
18850;BME280;4989;48.772;9.154;2022-08-21T16:41:21;97751.84;;;28.85;42.01
18850;BME280;4989;48.772;9.154;2022-08-21T16:46:34;97751.47;;;28.89;44.05
18850;BME280;4989;48.772;9.154;2022-08-21T16:51:37;97746.66;;;28.97;38.51
18850;BME280;4989;48.772;9.154;2022-08-21T16:56:40;97744.69;;;29.05;42.44
18850;BME280;4989;48.772;9.154;2022-08-21T17:01:49;97745.13;;;28.88;38.34
18850;BME280;4989;48.772;9.154;2022-08-21T17:06:51;97735.91;;;29.16;35.05
18850;BME280;4989;48.772;9.154;2022-08-21T17:11:54;97743.22;;;28.75;44.60
18850;BME280;4989;48.772;9.154;2022-08-21T17:16:57;97739.66;;;28.39;46.49
18850;BME280;4989;48.772;9.154;2022-08-21T17:22:01;97738.34;;;28.11;47.07
18850;BME280;4989;48.772;9.154;2022-08-21T17:27:04;97749.69;;;27.84;46.58
18850;BME280;4989;48.772;9.154;2022-08-21T17:32:10;97743.66;;;27.80;47.22
18850;BME280;4989;48.772;9.154;2022-08-21T17:37:14;97745.69;;;27.59;47.67
18850;BME280;4989;48.772;9.154;2022-08-21T17:42:16;97736.63;;;27.45;47.64
18850;BME280;4989;48.772;9.154;2022-08-21T17:47:19;97741.88;;;27.49;47.12
18850;BME280;4989;48.772;9.154;2022-08-21T17:52:23;97741.88;;;27.49;47.92
18850;BME280;4989;48.772;9.154;2022-08-21T17:57:25;97757.75;;;27.54;48.31
18850;BME280;4989;48.772;9.154;2022-08-21T18:02:30;97743.81;;;27.54;47.83
18850;BME280;4989;48.772;9.154;2022-08-21T18:07:33;97754.53;;;27.50;47.12
18850;BME280;4989;48.772;9.154;2022-08-21T18:12:40;97764.13;;;27.41;45.85
18850;BME280;4989;48.772;9.154;2022-08-21T18:17:48;97762.97;;;27.36;47.46
18850;BME280;4989;48.772;9.154;2022-08-21T18:22:50;97759.97;;;27.34;44.92
18850;BME280;4989;48.772;9.154;2022-08-21T18:27:54;97767.72;;;27.28;48.10
18850;BME280;4989;48.772;9.154;2022-08-21T18:32:57;97771.31;;;27.15;46.34
18850;BME280;4989;48.772;9.154;2022-08-21T18:37:59;97771.84;;;27.01;43.86
18850;BME280;4989;48.772;9.154;2022-08-21T18:43:02;97780.66;;;26.91;48.33
18850;BME280;4989;48.772;9.154;2022-08-21T18:48:11;97779.47;;;27.00;49.14
18850;BME280;4989;48.772;9.154;2022-08-21T18:53:15;97789.44;;;27.09;50.37
18850;BME280;4989;48.772;9.154;2022-08-21T18:58:30;97782.34;;;27.08;44.47
18850;BME280;4989;48.772;9.154;2022-08-21T19:03:33;97786.00;;;27.03;48.75
18850;BME280;4989;48.772;9.154;2022-08-21T19:08:35;97788.06;;;27.02;48.65
18850;BME280;4989;48.772;9.154;2022-08-21T19:13:39;97793.94;;;27.12;49.36
18850;BME280;4989;48.772;9.154;2022-08-21T19:18:42;97809.09;;;27.03;49.23
18850;BME280;4989;48.772;9.154;2022-08-21T19:23:44;97813.28;;;26.70;41.75
18850;BME280;4989;48.772;9.154;2022-08-21T19:28:59;97810.50;;;26.70;48.83
18850;BME280;4989;48.772;9.154;2022-08-21T19:39:17;97817.81;;;26.60;43.07
18850;BME280;4989;48.772;9.154;2022-08-21T19:44:23;97819.00;;;25.68;43.28
18850;BME280;4989;48.772;9.154;2022-08-21T19:49:32;97813.00;;;25.64;46.48
18850;BME280;4989;48.772;9.154;2022-08-21T19:54:36;97818.06;;;25.84;43.49
18850;BME280;4989;48.772;9.154;2022-08-21T19:59:40;97821.06;;;25.48;43.74
18850;BME280;4989;48.772;9.154;2022-08-21T20:04:43;97821.34;;;25.83;46.89
18850;BME280;4989;48.772;9.154;2022-08-21T20:09:56;97827.69;;;26.15;47.35
18850;BME280;4989;48.772;9.154;2022-08-21T20:14:59;97825.00;;;25.21;43.62
18850;BME280;4989;48.772;9.154;2022-08-21T20:20:04;97825.50;;;24.76;47.95
18850;BME280;4989;48.772;9.154;2022-08-21T20:25:07;97820.31;;;25.67;51.64
18850;BME280;4989;48.772;9.154;2022-08-21T20:30:11;97826.41;;;25.84;45.10
18850;BME280;4989;48.772;9.154;2022-08-21T20:35:14;97833.44;;;26.04;49.75
18850;BME280;4989;48.772;9.154;2022-08-21T20:40:17;97829.06;;;26.22;51.11
18850;BME280;4989;48.772;9.154;2022-08-21T20:45:26;97824.53;;;26.06;51.40
18850;BME280;4989;48.772;9.154;2022-08-21T20:50:33;97830.31;;;26.08;51.04
18850;BME280;4989;48.772;9.154;2022-08-21T20:55:43;97827.75;;;26.10;48.12
18850;BME280;4989;48.772;9.154;2022-08-21T21:00:49;97824.66;;;25.81;52.01
18850;BME280;4989;48.772;9.154;2022-08-21T21:06:03;97823.66;;;25.97;47.25
18850;BME280;4989;48.772;9.154;2022-08-21T21:11:28;97824.50;;;25.92;50.12
18850;BME280;4989;48.772;9.154;2022-08-21T21:22:16;97826.00;;;25.74;47.44
18850;BME280;4989;48.772;9.154;2022-08-21T21:27:41;97821.94;;;25.75;48.47
18850;BME280;4989;48.772;9.154;2022-08-21T21:32:50;97826.19;;;25.44;44.45
18850;BME280;4989;48.772;9.154;2022-08-21T21:54:02;97827.16;;;25.28;48.89
18850;BME280;4989;48.772;9.154;2022-08-21T21:59:44;97827.69;;;25.45;49.77
18850;BME280;4989;48.772;9.154;2022-08-21T22:05:05;97824.34;;;25.66;49.36
18850;BME280;4989;48.772;9.154;2022-08-21T22:10:20;97823.09;;;25.29;46.10
18850;BME280;4989;48.772;9.154;2022-08-21T22:15:33;97826.41;;;24.84;46.74
18850;BME280;4989;48.772;9.154;2022-08-21T22:21:31;97826.88;;;24.88;49.36
18850;BME280;4989;48.772;9.154;2022-08-21T22:26:18;97826.25;;;25.20;46.52
18850;BME280;4989;48.772;9.154;2022-08-21T22:31:30;97828.47;;;25.27;48.37
18850;BME280;4989;48.772;9.154;2022-08-21T22:36:42;97830.09;;;25.17;47.20
18850;BME280;4989;48.772;9.154;2022-08-21T22:41:51;97823.03;;;25.16;48.35
18850;BME280;4989;48.772;9.154;2022-08-21T22:46:57;97830.88;;;25.36;49.65
18850;BME280;4989;48.772;9.154;2022-08-21T22:57:32;97839.47;;;24.40;48.82
18850;BME280;4989;48.772;9.154;2022-08-21T23:07:53;97835.91;;;24.94;49.22
18850;BME280;4989;48.772;9.154;2022-08-21T23:13:10;97832.28;;;24.99;47.37
18850;BME280;4989;48.772;9.154;2022-08-21T23:18:27;97823.41;;;24.57;47.01
18850;BME280;4989;48.772;9.154;2022-08-21T23:23:45;97823.53;;;24.71;49.17
18850;BME280;4989;48.772;9.154;2022-08-21T23:34:37;97821.88;;;24.81;45.27
18850;BME280;4989;48.772;9.154;2022-08-21T23:40:07;97822.13;;;24.58;49.13
18850;BME280;4989;48.772;9.154;2022-08-21T23:51:11;97822.25;;;24.47;47.72
18850;BME280;4989;48.772;9.154;2022-08-21T23:56:39;97825.34;;;24.08;47.94
